Auburn, KS

12:39 PM CDT on May 28, 2015 (GMT -0500)
Billard Municipal | | Change Station
CLOSE
Current Station
Airport
Location: Topeka,
Elevation: 886 ft
Nearby Weather Stations

Elev 886 ft 39.07 °N, 95.63 °W | Updated 16 minutes ago

Overcast
Overcast
69 °F
Feels Like 69 °F
N
9
Wind Variable Wind from SE

Today
High -- | Low -- °F
--% Chance of Precip.
Yesterday
High -- | Low -- °F
Precip. -- in
6:01 AM 8:39 PM
Waxing Gibbous, 77% visible
Pressure 30.08 in
Visibility 10.0 miles
Clouds Few 1200 ft
Scattered Clouds 10000 ft
Dew Point 65 °F
Humidity 87%
Rainfall 0.38 in
Snow Depth Not available.
UV 9 out of 12
Pollen 7.10 out of 12
Air Quality Not available.
Flu Activity No Activity
SPECI KTOP 281723Z 14008KT 10SM FEW012 SCT100 21/18 A3008 RMK AO2 T02060183

More Conditions Fewer Conditions

Pressure 30.08 in
Visibility 10.0 miles
Clouds Few 1200 ft
Scattered Clouds 10000 ft
Dew Point 65 °F
Humidity 87%
Rainfall 0.38 in
Snow Depth Not available.
UV 9 out of 12
Pollen 7.10 out of 12
Air Quality Not available.
Flu Activity No Activity
SPECI KTOP 281723Z 14008KT 10SM FEW012 SCT100 21/18 A3008 RMK AO2 T02060183

More Conditions Fewer Conditions

10-Day Weather Forecast

Almanac

Astronomy

May. 28, 2015 Rise Set
Actual Time
Civil Twilight
Nautical Twilight
Astronomical Twilight
Moon
Length of Visible Light
Length of Day
Tomorrow will be .
, % of the Moon is Illuminated

Today's Extremes

State Highs State Lows

Community

WunderPhotos

Upload Photos

1,825,007 photos uploaded!

WunderBlogs® & News

Nearby

Air Quality

  Air Quality AQ Index Pollutant
Not available.

Snow Depth

Station Depth Elevation

Earthquake Activity

City Distance Mag. Time & Date
Minimum magnitude displayed is 2.5.

Coastal Water Temperatures

Place Temperature

Stations

Nearby Weather Stations

Station Location Temp. Windchill Dew Point Humidity Wind Precip. Elev Updated Type